createdAt,value
2022-09-01T00:00:19.125Z,982.95
2022-09-01T00:01:19.148Z,982.96
2022-09-01T00:02:19.290Z,982.90
2022-09-01T00:03:19.045Z,982.89
2022-09-01T00:04:19.201Z,982.92
2022-09-01T00:05:19.282Z,982.86
2022-09-01T00:06:19.207Z,982.87
2022-09-01T00:07:19.002Z,982.89
2022-09-01T00:08:19.275Z,982.88
2022-09-01T00:09:18.964Z,982.85
2022-09-01T00:10:18.985Z,982.81
2022-09-01T00:11:18.951Z,982.82
2022-09-01T00:12:18.984Z,982.84
2022-09-01T00:13:18.921Z,982.86
2022-09-01T00:14:30.421Z,982.86
2022-09-01T00:15:18.937Z,982.86
2022-09-01T00:16:18.930Z,982.87
2022-09-01T00:17:18.957Z,982.92
2022-09-01T00:18:19.074Z,982.93
2022-09-01T00:19:18.949Z,982.91
2022-09-01T00:20:20.766Z,982.87
2022-09-01T00:21:19.005Z,982.90
2022-09-01T00:22:18.787Z,982.84
2022-09-01T00:23:18.843Z,982.84
2022-09-01T00:24:18.787Z,982.82
2022-09-01T00:25:18.783Z,982.82
2022-09-01T00:26:18.777Z,982.78
2022-09-01T00:27:19.003Z,982.80
2022-09-01T00:28:19.069Z,982.78
2022-09-01T00:29:18.725Z,982.76
2022-09-01T00:30:18.792Z,982.77
2022-09-01T00:31:19.085Z,982.83
2022-09-01T00:32:18.783Z,982.75
2022-09-01T00:33:18.665Z,982.80
2022-09-01T00:34:18.692Z,982.82
2022-09-01T00:35:18.644Z,982.80
2022-09-01T00:36:18.595Z,982.82
2022-09-01T00:37:18.612Z,982.81
2022-09-01T00:38:18.757Z,982.83
2022-09-01T00:39:18.686Z,982.77
2022-09-01T00:40:18.606Z,982.82
2022-09-01T00:41:18.628Z,982.76
2022-09-01T00:42:18.807Z,982.80
2022-09-01T00:43:18.643Z,982.78
2022-09-01T00:44:18.567Z,982.75
2022-09-01T00:45:18.468Z,982.80
2022-09-01T00:46:20.317Z,982.81
2022-09-01T00:47:18.618Z,982.77
2022-09-01T00:48:18.684Z,982.80
2022-09-01T00:49:18.460Z,982.76
2022-09-01T00:50:18.544Z,982.77
2022-09-01T00:51:18.404Z,982.78
2022-09-01T00:52:18.448Z,982.84
2022-09-01T00:53:18.643Z,982.72
2022-09-01T00:54:18.525Z,982.74
2022-09-01T00:55:18.424Z,982.79
2022-09-01T00:56:18.474Z,982.78
2022-09-01T00:57:18.303Z,982.77
2022-09-01T00:58:20.119Z,982.76
2022-09-01T00:59:18.324Z,982.69
2022-09-01T01:00:18.531Z,982.73
2022-09-01T01:01:18.360Z,982.69
2022-09-01T01:02:18.308Z,982.73
2022-09-01T01:03:18.284Z,982.67
2022-09-01T01:04:18.474Z,982.78
2022-09-01T01:05:18.388Z,982.78
2022-09-01T01:06:18.208Z,982.69
2022-09-01T01:07:18.328Z,982.76
2022-09-01T01:08:18.394Z,982.76
2022-09-01T01:09:18.177Z,982.73
2022-09-01T01:10:18.164Z,982.76
2022-09-01T01:11:18.398Z,982.72
2022-09-01T01:12:18.176Z,982.72
2022-09-01T01:13:18.098Z,982.74
2022-09-01T01:14:18.158Z,982.70
2022-09-01T01:15:18.324Z,982.71
2022-09-01T01:16:18.214Z,982.69
2022-09-01T01:17:18.172Z,982.77
2022-09-01T01:18:23.560Z,982.73
2022-09-01T01:19:18.033Z,982.70
2022-09-01T01:20:18.163Z,982.69
2022-09-01T01:21:18.002Z,982.74
2022-09-01T01:22:18.473Z,982.73
2022-09-01T01:23:17.990Z,982.70
2022-09-01T01:24:17.984Z,982.73
2022-09-01T01:25:17.991Z,982.68
2022-09-01T01:26:17.923Z,982.70
2022-09-01T01:27:17.973Z,982.69
2022-09-01T01:28:18.030Z,982.71
2022-09-01T01:29:17.998Z,982.66
2022-09-01T01:30:18.157Z,982.59
2022-09-01T01:31:18.079Z,982.64
2022-09-01T01:32:17.857Z,982.62
2022-09-01T01:33:18.077Z,982.61
2022-09-01T01:34:17.836Z,982.60
2022-09-01T01:35:17.836Z,982.60
2022-09-01T01:36:17.817Z,982.61
2022-09-01T01:37:17.978Z,982.56
2022-09-01T01:38:17.923Z,982.54
2022-09-01T01:39:17.997Z,982.55
2022-09-01T01:40:17.962Z,982.48
2022-09-01T01:41:17.991Z,982.49
2022-09-01T01:42:17.843Z,982.50
2022-09-01T01:43:17.721Z,982.50
2022-09-01T01:44:17.944Z,982.52
2022-09-01T01:45:17.704Z,982.51
2022-09-01T01:46:17.775Z,982.50
2022-09-01T01:47:17.682Z,982.47
2022-09-01T01:48:17.812Z,982.49
2022-09-01T01:49:17.684Z,982.45
2022-09-01T01:50:17.665Z,982.42
2022-09-01T01:51:17.662Z,982.45
2022-09-01T01:52:17.597Z,982.48
2022-09-01T01:53:17.677Z,982.49
2022-09-01T01:54:17.578Z,982.51
2022-09-01T01:55:17.738Z,982.47
2022-09-01T01:56:17.848Z,982.49
2022-09-01T01:57:17.667Z,982.50
2022-09-01T01:58:17.509Z,982.48
2022-09-01T01:59:17.668Z,982.54
2022-09-01T02:00:17.497Z,982.53
2022-09-01T02:01:17.589Z,982.55
2022-09-01T02:02:17.544Z,982.47
2022-09-01T02:03:17.678Z,982.52
2022-09-01T02:04:17.517Z,982.49
2022-09-01T02:05:17.682Z,982.50
2022-09-01T02:06:17.522Z,982.48
2022-09-01T02:07:17.806Z,982.53
2022-09-01T02:08:17.646Z,982.48
2022-09-01T02:09:17.384Z,982.47
2022-09-01T02:10:17.553Z,982.45
2022-09-01T02:11:17.365Z,982.47
2022-09-01T02:12:17.523Z,982.49
2022-09-01T02:13:17.362Z,982.41
2022-09-01T02:14:17.283Z,982.44
2022-09-01T02:15:17.365Z,982.42
2022-09-01T02:16:17.294Z,982.44
2022-09-01T02:17:17.367Z,982.48
2022-09-01T02:18:17.360Z,982.44
2022-09-01T02:19:17.365Z,982.47
2022-09-01T02:20:17.517Z,982.46
2022-09-01T02:21:18.607Z,982.43
2022-09-01T02:22:17.197Z,982.50
2022-09-01T02:23:17.358Z,982.49
2022-09-01T02:24:17.259Z,982.46
2022-09-01T02:25:17.156Z,982.51
2022-09-01T02:26:17.911Z,982.51
2022-09-01T02:27:17.149Z,982.49
2022-09-01T02:28:17.206Z,982.48
2022-09-01T02:29:17.364Z,982.46
2022-09-01T02:30:17.283Z,982.48
2022-09-01T02:31:17.227Z,982.45
2022-09-01T02:32:17.193Z,982.49
2022-09-01T02:33:17.362Z,982.45
2022-09-01T02:34:17.226Z,982.43
2022-09-01T02:35:17.164Z,982.47
2022-09-01T02:36:17.012Z,982.47
2022-09-01T02:37:17.033Z,982.45
2022-09-01T02:38:17.222Z,982.48
2022-09-01T02:39:17.032Z,982.49
2022-09-01T02:40:17.275Z,982.49
2022-09-01T02:41:17.142Z,982.48
2022-09-01T02:42:17.197Z,982.52
2022-09-01T02:43:17.057Z,982.47
2022-09-01T02:44:16.877Z,982.54
2022-09-01T02:45:16.878Z,982.53
2022-09-01T02:46:16.958Z,982.50
2022-09-01T02:47:16.924Z,982.54
2022-09-01T02:48:16.867Z,982.54
2022-09-01T02:49:17.038Z,982.53
2022-09-01T02:50:16.924Z,982.50
2022-09-01T02:51:16.806Z,982.53
2022-09-01T02:52:17.007Z,982.60
2022-09-01T02:53:16.747Z,982.55
2022-09-01T02:54:16.942Z,982.60
2022-09-01T02:55:16.765Z,982.58
2022-09-01T02:56:16.953Z,982.58
2022-09-01T02:57:16.791Z,982.57
2022-09-01T02:58:16.746Z,982.53
2022-09-01T02:59:16.713Z,982.56
2022-09-01T03:00:16.874Z,982.53
2022-09-01T03:01:16.776Z,982.57
2022-09-01T03:02:16.873Z,982.53
2022-09-01T03:03:16.765Z,982.57
2022-09-01T03:04:16.984Z,982.50
2022-09-01T03:05:16.722Z,982.49
2022-09-01T03:06:16.573Z,982.44
2022-09-01T03:07:16.707Z,982.47
2022-09-01T03:08:16.697Z,982.48
2022-09-01T03:09:16.712Z,982.45
2022-09-01T03:10:16.557Z,982.50
2022-09-01T03:11:16.718Z,982.47
2022-09-01T03:12:16.565Z,982.47
2022-09-01T03:13:16.547Z,982.44
2022-09-01T03:14:16.557Z,982.45
2022-09-01T03:15:16.496Z,982.46
2022-09-01T03:16:16.619Z,982.45
2022-09-01T03:17:16.418Z,982.48
2022-09-01T03:18:16.617Z,982.44
2022-09-01T03:19:16.524Z,982.45
2022-09-01T03:20:16.391Z,982.48
2022-09-01T03:21:16.403Z,982.44
2022-09-01T03:22:16.605Z,982.47
2022-09-01T03:23:19.284Z,982.46
2022-09-01T03:24:16.352Z,982.47
2022-09-01T03:25:16.472Z,982.43
2022-09-01T03:26:16.562Z,982.42
2022-09-01T03:27:16.391Z,982.42
2022-09-01T03:28:16.320Z,982.39
2022-09-01T03:29:16.392Z,982.40
2022-09-01T03:30:16.273Z,982.37
2022-09-01T03:31:16.479Z,982.38
2022-09-01T03:32:16.320Z,982.35
2022-09-01T03:33:16.217Z,982.39
2022-09-01T03:34:16.229Z,982.38
2022-09-01T03:35:16.202Z,982.39
2022-09-01T03:36:16.303Z,982.40
2022-09-01T03:37:16.184Z,982.36
2022-09-01T03:38:16.284Z,982.35
2022-09-01T03:39:16.846Z,982.34
2022-09-01T03:40:16.323Z,982.36
2022-09-01T03:41:16.177Z,982.36
2022-09-01T03:42:16.086Z,982.33
2022-09-01T03:43:16.086Z,982.30
2022-09-01T03:44:16.092Z,982.31
2022-09-01T03:45:16.072Z,982.31
2022-09-01T03:46:16.184Z,982.26
2022-09-01T03:47:16.082Z,982.30
2022-09-01T03:48:16.271Z,982.26
2022-09-01T03:49:16.063Z,982.28
2022-09-01T03:50:15.991Z,982.26
2022-09-01T03:51:16.125Z,982.29
2022-09-01T03:52:16.032Z,982.18
2022-09-01T03:53:16.083Z,982.25
2022-09-01T03:54:15.932Z,982.26
2022-09-01T03:55:16.104Z,982.21
2022-09-01T03:56:15.922Z,982.25
2022-09-01T03:57:15.926Z,982.26
2022-09-01T03:58:16.037Z,982.30
2022-09-01T03:59:16.076Z,982.26
2022-09-01T04:00:15.920Z,982.27
2022-09-01T04:01:16.058Z,982.27
2022-09-01T04:02:15.971Z,982.27
2022-09-01T04:03:16.147Z,982.28
2022-09-01T04:04:15.917Z,982.31
2022-09-01T04:05:15.817Z,982.32
2022-09-01T04:06:15.917Z,982.27
2022-09-01T04:07:19.226Z,982.31
2022-09-01T04:08:15.986Z,982.29
2022-09-01T04:09:15.764Z,982.33
2022-09-01T04:10:15.784Z,982.31
2022-09-01T04:11:15.751Z,982.34
2022-09-01T04:12:15.893Z,982.34
2022-09-01T04:13:15.805Z,982.33
2022-09-01T04:14:15.735Z,982.33
2022-09-01T04:15:15.752Z,982.36
2022-09-01T04:16:15.676Z,982.32
2022-09-01T04:17:15.623Z,982.32
2022-09-01T04:18:15.623Z,982.32
2022-09-01T04:19:16.112Z,982.28
2022-09-01T04:20:15.582Z,982.27
2022-09-01T04:21:15.773Z,982.28
2022-09-01T04:22:15.608Z,982.29
2022-09-01T04:23:15.758Z,982.30
2022-09-01T04:24:15.588Z,982.29
2022-09-01T04:25:15.606Z,982.32
2022-09-01T04:26:15.604Z,982.28
2022-09-01T04:27:15.507Z,982.33
2022-09-01T04:28:15.587Z,982.38
2022-09-01T04:29:15.498Z,982.39
2022-09-01T04:30:15.677Z,982.37
2022-09-01T04:31:15.767Z,982.41
2022-09-01T04:32:15.438Z,982.37
2022-09-01T04:33:15.438Z,982.38
2022-09-01T04:34:15.604Z,982.39
2022-09-01T04:35:15.485Z,982.38
2022-09-01T04:36:15.486Z,982.36
2022-09-01T04:37:15.443Z,982.33
2022-09-01T04:38:15.596Z,982.27
2022-09-01T04:39:15.485Z,982.28
2022-09-01T04:40:15.441Z,982.26
2022-09-01T04:41:15.432Z,982.28
2022-09-01T04:42:15.684Z,982.36
2022-09-01T04:43:15.292Z,982.38
2022-09-01T04:44:15.282Z,982.38
2022-09-01T04:45:20.446Z,982.35
2022-09-01T04:46:15.367Z,982.41
2022-09-01T04:47:15.318Z,982.42
2022-09-01T04:48:15.277Z,982.42
2022-09-01T04:49:15.436Z,982.42
2022-09-01T04:50:15.284Z,982.43
2022-09-01T04:51:15.466Z,982.48
2022-09-01T04:52:15.338Z,982.45
2022-09-01T04:53:15.427Z,982.51
2022-09-01T04:54:15.257Z,982.47
2022-09-01T04:55:15.130Z,982.48
2022-09-01T04:56:15.119Z,982.51
2022-09-01T04:57:15.167Z,982.53
2022-09-01T04:58:15.078Z,982.57
2022-09-01T04:59:15.108Z,982.53
2022-09-01T05:00:15.075Z,982.55
2022-09-01T05:01:15.323Z,982.56
2022-09-01T05:02:15.216Z,982.55
2022-09-01T05:03:15.192Z,982.54
2022-09-01T05:04:15.084Z,982.54
2022-09-01T05:05:15.125Z,982.52
2022-09-01T05:06:14.973Z,982.55
2022-09-01T05:07:14.983Z,982.52
2022-09-01T05:08:23.145Z,982.50
2022-09-01T05:09:15.003Z,982.52
2022-09-01T05:10:14.952Z,982.51
2022-09-01T05:11:15.114Z,982.52
2022-09-01T05:12:15.720Z,982.52
2022-09-01T05:13:14.897Z,982.53
2022-09-01T05:14:15.277Z,982.56
2022-09-01T05:15:15.124Z,982.57
2022-09-01T05:16:15.080Z,982.46
2022-09-01T05:17:14.846Z,982.53
2022-09-01T05:18:14.957Z,982.55
2022-09-01T05:19:14.996Z,982.47
2022-09-01T05:20:14.777Z,982.54
2022-09-01T05:21:14.799Z,982.54
2022-09-01T05:22:14.958Z,982.54
2022-09-01T05:23:14.797Z,982.53
2022-09-01T05:24:15.004Z,982.53
2022-09-01T05:25:14.946Z,982.53
2022-09-01T05:26:14.964Z,982.58
2022-09-01T05:27:14.703Z,982.52
2022-09-01T05:28:14.683Z,982.51
2022-09-01T05:29:14.672Z,982.55
2022-09-01T05:30:14.644Z,982.56
2022-09-01T05:31:14.730Z,982.52
2022-09-01T05:32:14.637Z,982.49
2022-09-01T05:33:18.640Z,982.50
2022-09-01T05:34:14.672Z,982.52
2022-09-01T05:35:14.624Z,982.54
2022-09-01T05:36:14.653Z,982.49
2022-09-01T05:37:14.906Z,982.50
2022-09-01T05:38:14.668Z,982.53
2022-09-01T05:39:14.553Z,982.46
2022-09-01T05:40:14.766Z,982.51
2022-09-01T05:41:14.508Z,982.56
2022-09-01T05:42:14.558Z,982.55
2022-09-01T05:43:14.458Z,982.56
2022-09-01T05:44:14.637Z,982.57
2022-09-01T05:45:14.457Z,982.58
2022-09-01T05:46:14.506Z,982.53
2022-09-01T05:47:20.499Z,982.58
2022-09-01T05:48:14.739Z,982.60
2022-09-01T05:49:14.455Z,982.61
2022-09-01T05:50:14.874Z,982.60
2022-09-01T05:51:40.307Z,982.55
2022-09-01T05:52:14.352Z,982.62
2022-09-01T05:53:14.445Z,982.62
2022-09-01T05:54:14.376Z,982.60
2022-09-01T05:55:14.302Z,982.60
2022-09-01T05:56:14.313Z,982.62
2022-09-01T05:57:33.319Z,982.58
2022-09-01T05:58:14.427Z,982.56
2022-09-01T05:59:30.009Z,982.54
2022-09-01T06:00:14.325Z,982.60
2022-09-01T06:01:14.523Z,982.57
2022-09-01T06:02:14.424Z,982.59
2022-09-01T06:03:14.358Z,982.56
2022-09-01T06:04:14.399Z,982.58
2022-09-01T06:05:14.168Z,982.59
2022-09-01T06:06:14.318Z,982.59
2022-09-01T06:07:16.355Z,982.65
2022-09-01T06:08:14.325Z,982.64
2022-09-01T06:09:14.157Z,982.65
2022-09-01T06:10:14.377Z,982.66
2022-09-01T06:11:14.158Z,982.67
2022-09-01T06:12:14.328Z,982.70
2022-09-01T06:13:14.157Z,982.74
2022-09-01T06:14:14.038Z,982.72
2022-09-01T06:15:14.218Z,982.73
2022-09-01T06:16:14.074Z,982.65
2022-09-01T06:17:14.163Z,982.66
2022-09-01T06:18:14.045Z,982.65
2022-09-01T06:19:14.172Z,982.73
2022-09-01T06:20:13.983Z,982.70
2022-09-01T06:21:14.023Z,982.72
2022-09-01T06:22:14.002Z,982.74
2022-09-01T06:23:14.165Z,982.71
2022-09-01T06:24:13.978Z,982.68
2022-09-01T06:25:13.893Z,982.72
2022-09-01T06:26:14.005Z,982.72
2022-09-01T06:27:13.932Z,982.75
2022-09-01T06:28:14.018Z,982.65
2022-09-01T06:29:13.858Z,982.72
2022-09-01T06:30:14.044Z,982.69
2022-09-01T06:31:13.906Z,982.67
2022-09-01T06:32:13.999Z,982.65
2022-09-01T06:33:13.810Z,982.63
2022-09-01T06:34:13.978Z,982.64
2022-09-01T06:35:13.856Z,982.61
2022-09-01T06:36:13.778Z,982.61
2022-09-01T06:37:13.838Z,982.59
2022-09-01T06:38:14.056Z,982.62
2022-09-01T06:39:13.818Z,982.66
2022-09-01T06:40:13.754Z,982.62
2022-09-01T06:41:13.884Z,982.65
2022-09-01T06:42:13.685Z,982.68
2022-09-01T06:43:13.723Z,982.63
2022-09-01T06:44:14.665Z,982.70
2022-09-01T06:45:13.885Z,982.71
2022-09-01T06:46:13.704Z,982.78
2022-09-01T06:47:13.844Z,982.74
2022-09-01T06:48:13.765Z,982.80
2022-09-01T06:49:13.572Z,982.73
2022-09-01T06:50:13.868Z,982.86
2022-09-01T06:51:17.385Z,982.81
2022-09-01T06:52:13.677Z,982.85
2022-09-01T06:54:14.028Z,982.83
2022-09-01T06:55:13.517Z,982.83
2022-09-01T06:56:13.719Z,982.77
2022-09-01T06:58:14.161Z,982.85
2022-09-01T06:59:13.807Z,982.83
2022-09-01T07:00:13.487Z,982.83
2022-09-01T07:01:14.250Z,982.86
2022-09-01T07:02:17.307Z,982.89
2022-09-01T07:03:13.518Z,982.92
2022-09-01T07:04:13.554Z,982.94
2022-09-01T07:05:59.832Z,982.90
2022-09-01T07:06:59.098Z,982.92
2022-09-01T07:08:13.364Z,982.94
2022-09-01T07:09:22.158Z,982.96
2022-09-01T07:10:21.363Z,982.94
2022-09-01T07:12:07.237Z,982.92
2022-09-01T07:12:28.695Z,983.00
2022-09-01T07:13:13.511Z,982.95
2022-09-01T07:14:16.492Z,982.98
2022-09-01T07:17:28.910Z,982.99
2022-09-01T07:18:13.418Z,983.01
2022-09-01T07:19:13.205Z,983.08
2022-09-01T07:20:28.771Z,982.99
2022-09-01T07:22:35.858Z,983.03
2022-09-01T07:23:13.178Z,983.00
2022-09-01T07:24:13.347Z,983.01
2022-09-01T07:25:13.553Z,983.01
2022-09-01T07:26:24.699Z,983.00
2022-09-01T07:27:13.292Z,983.03
2022-09-01T07:28:15.706Z,983.01
2022-09-01T07:29:13.191Z,982.94
2022-09-01T07:30:13.054Z,983.03
2022-09-01T07:35:13.210Z,983.08
2022-09-01T07:36:29.351Z,983.12
2022-09-01T07:38:46.958Z,983.10
2022-09-01T07:43:13.143Z,983.26
2022-09-01T07:44:12.897Z,983.24
2022-09-01T07:45:28.861Z,983.31
2022-09-01T07:47:51.809Z,983.29
2022-09-01T07:48:35.951Z,983.34
2022-09-01T07:50:37.614Z,983.34
2022-09-01T07:52:12.762Z,983.35
2022-09-01T07:53:13.022Z,983.36
2022-09-01T07:54:12.724Z,983.34
2022-09-01T07:55:12.733Z,983.32
2022-09-01T07:56:12.803Z,983.35
2022-09-01T07:57:12.872Z,983.37
2022-09-01T07:58:12.712Z,983.34
2022-09-01T07:59:14.738Z,983.26
2022-09-01T08:00:12.719Z,983.27
2022-09-01T08:01:12.879Z,983.31
2022-09-01T08:02:12.939Z,983.45
2022-09-01T08:03:12.818Z,983.35
2022-09-01T08:04:12.718Z,983.39
2022-09-01T08:05:12.653Z,983.40
2022-09-01T08:06:12.586Z,983.37
2022-09-01T08:07:16.044Z,983.45
2022-09-01T08:08:21.811Z,983.42
2022-09-01T08:09:27.420Z,983.44
2022-09-01T08:10:13.249Z,983.41
2022-09-01T08:11:12.564Z,983.43
2022-09-01T08:12:12.722Z,983.42
2022-09-01T08:13:15.297Z,983.39
2022-09-01T08:14:12.485Z,983.44
2022-09-01T08:15:13.146Z,983.39
2022-09-01T08:16:19.698Z,983.45
2022-09-01T08:18:14.215Z,983.49
2022-09-01T08:19:19.630Z,983.50
2022-09-01T08:20:12.942Z,983.49
2022-09-01T08:21:12.577Z,983.56
2022-09-01T08:22:12.398Z,983.51
2022-09-01T08:23:12.557Z,983.52
2022-09-01T08:24:12.399Z,983.49
2022-09-01T08:25:12.377Z,983.49
2022-09-01T08:26:12.413Z,983.50
2022-09-01T08:27:12.299Z,983.49
2022-09-01T08:28:12.505Z,983.56
2022-09-01T08:29:12.279Z,983.55
2022-09-01T08:30:12.402Z,983.53
2022-09-01T08:31:12.367Z,983.59
2022-09-01T08:32:12.248Z,983.56
2022-09-01T08:33:12.248Z,983.54
2022-09-01T08:34:12.213Z,983.55
2022-09-01T08:35:12.253Z,983.46
2022-09-01T08:36:12.409Z,983.55
2022-09-01T08:37:12.333Z,983.51
2022-09-01T08:38:12.153Z,983.55
2022-09-01T08:39:12.256Z,983.50
2022-09-01T08:40:12.174Z,983.51
2022-09-01T08:41:12.237Z,983.50
2022-09-01T08:42:12.189Z,983.50
2022-09-01T08:43:15.449Z,983.52
2022-09-01T08:44:12.077Z,983.54
2022-09-01T08:45:12.247Z,983.48
2022-09-01T08:46:12.112Z,983.46
2022-09-01T08:47:13.633Z,983.59
2022-09-01T08:49:25.249Z,983.52
2022-09-01T08:50:12.092Z,983.47
2022-09-01T08:51:17.015Z,983.51
2022-09-01T08:52:12.084Z,983.46
2022-09-01T08:53:11.953Z,983.50
2022-09-01T08:54:12.003Z,983.48
2022-09-01T08:55:11.923Z,983.52
2022-09-01T08:56:12.073Z,983.54
2022-09-01T08:57:11.914Z,983.45
2022-09-01T08:58:11.883Z,983.47
2022-09-01T08:59:11.978Z,983.43
2022-09-01T09:00:12.688Z,983.50
2022-09-01T09:01:11.993Z,983.46
2022-09-01T09:02:11.848Z,983.51
2022-09-01T09:03:12.009Z,983.51
2022-09-01T09:04:12.084Z,983.38
2022-09-01T09:05:19.055Z,983.45
2022-09-01T09:06:11.769Z,983.43
2022-09-01T09:07:13.001Z,983.44
2022-09-01T09:08:11.766Z,983.46
2022-09-01T09:09:12.119Z,983.48
2022-09-01T09:10:12.085Z,983.47
2022-09-01T09:11:13.013Z,983.38
2022-09-01T09:12:12.342Z,983.44
2022-09-01T09:13:11.705Z,983.41
2022-09-01T09:14:11.754Z,983.40
2022-09-01T09:15:11.905Z,983.37
2022-09-01T09:16:11.883Z,983.38
2022-09-01T09:17:11.645Z,983.36
2022-09-01T09:18:20.148Z,983.33
2022-09-01T09:19:11.630Z,983.33
2022-09-01T09:20:11.598Z,983.44
2022-09-01T09:21:12.082Z,983.43
2022-09-01T09:22:11.687Z,983.38
2022-09-01T09:23:11.625Z,983.36
2022-09-01T09:24:11.749Z,983.44
2022-09-01T09:25:11.597Z,983.41
2022-09-01T09:26:16.677Z,983.36
2022-09-01T09:27:11.678Z,983.37
2022-09-01T09:28:11.758Z,983.39
2022-09-01T09:29:11.655Z,983.38
2022-09-01T09:30:11.961Z,983.33
2022-09-01T09:31:11.701Z,983.40
2022-09-01T09:32:44.369Z,983.33
2022-09-01T09:34:11.435Z,983.42
2022-09-01T09:35:11.394Z,983.34
2022-09-01T09:36:11.446Z,983.37
2022-09-01T09:37:11.385Z,983.34
2022-09-01T09:38:11.518Z,983.31
2022-09-01T09:39:11.359Z,983.33
2022-09-01T09:40:11.386Z,983.33
2022-09-01T09:41:17.802Z,983.39
2022-09-01T09:42:11.428Z,983.42
2022-09-01T09:43:11.308Z,983.41
2022-09-01T09:44:11.605Z,983.46
2022-09-01T09:45:11.286Z,983.48
2022-09-01T09:46:23.251Z,983.43
2022-09-01T09:47:33.496Z,983.47
2022-09-01T09:48:11.433Z,983.36
2022-09-01T09:49:11.284Z,983.48
2022-09-01T09:50:11.818Z,983.37
2022-09-01T09:51:11.285Z,983.34
2022-09-01T09:52:11.225Z,983.37
2022-09-01T09:53:11.324Z,983.34
2022-09-01T09:54:11.144Z,983.34
2022-09-01T09:55:11.608Z,983.33
2022-09-01T09:56:11.212Z,983.39
2022-09-01T09:57:11.125Z,983.41
2022-09-01T09:58:11.117Z,983.34
2022-09-01T09:59:11.289Z,983.33
2022-09-01T10:00:11.383Z,983.36
2022-09-01T10:01:11.436Z,983.35
2022-09-01T10:02:11.108Z,983.37
2022-09-01T10:03:12.559Z,983.27
2022-09-01T10:04:11.166Z,983.34
2022-09-01T10:05:11.025Z,983.39
2022-09-01T10:06:11.118Z,983.33
2022-09-01T10:07:10.992Z,983.33
2022-09-01T10:08:11.106Z,983.30
2022-09-01T10:09:10.962Z,983.31
2022-09-01T10:10:10.956Z,983.28
2022-09-01T10:11:10.952Z,983.28
2022-09-01T10:12:11.132Z,983.29
2022-09-01T10:13:11.003Z,983.27
2022-09-01T10:14:13.785Z,983.29
2022-09-01T10:15:13.761Z,983.23
2022-09-01T10:16:11.420Z,983.21
2022-09-01T10:17:11.034Z,983.20
2022-09-01T10:18:20.000Z,983.22
2022-09-01T10:19:12.532Z,983.18
2022-09-01T10:20:11.392Z,983.16
2022-09-01T10:21:10.957Z,983.16
2022-09-01T10:22:10.804Z,983.16
2022-09-01T10:23:15.353Z,983.18
2022-09-01T10:24:20.783Z,983.26
2022-09-01T10:25:10.841Z,983.18
2022-09-01T10:26:10.813Z,983.21
2022-09-01T10:27:14.241Z,983.17
2022-09-01T10:28:10.805Z,983.12
2022-09-01T10:29:12.022Z,983.15
2022-09-01T10:30:12.383Z,983.12
2022-09-01T10:31:10.758Z,983.10
2022-09-01T10:32:31.489Z,983.09
2022-09-01T10:33:19.266Z,983.07
2022-09-01T10:34:10.773Z,983.06
2022-09-01T10:35:10.627Z,983.06
2022-09-01T10:36:10.805Z,983.07
2022-09-01T10:37:11.707Z,983.02
2022-09-01T10:38:11.160Z,983.03
2022-09-01T10:39:10.638Z,982.99
2022-09-01T10:40:10.924Z,983.03
2022-09-01T10:41:15.008Z,983.12
2022-09-01T10:42:13.087Z,983.02
2022-09-01T10:43:12.431Z,983.04
2022-09-01T10:44:10.498Z,983.04
2022-09-01T10:45:10.632Z,983.00
2022-09-01T10:46:15.907Z,982.99
2022-09-01T10:47:13.565Z,983.01
2022-09-01T10:48:13.240Z,982.97
2022-09-01T10:49:10.524Z,982.94
2022-09-01T10:50:11.238Z,982.98
2022-09-01T10:51:10.426Z,982.91
2022-09-01T10:52:13.985Z,982.95
2022-09-01T10:53:10.613Z,982.94
2022-09-01T10:54:10.545Z,982.95
2022-09-01T10:55:10.637Z,982.97
2022-09-01T10:56:23.377Z,982.98
2022-09-01T10:57:12.270Z,982.91
2022-09-01T10:59:31.054Z,982.91
2022-09-01T10:59:41.884Z,982.95
2022-09-01T11:00:34.823Z,982.96
2022-09-01T11:01:16.974Z,982.92
2022-09-01T11:04:10.371Z,982.93
2022-09-01T11:05:10.451Z,982.90
2022-09-01T11:06:12.619Z,982.89
2022-09-01T11:07:12.417Z,982.96
2022-09-01T11:08:17.499Z,982.92
2022-09-01T11:09:10.324Z,982.87
2022-09-01T11:10:11.833Z,982.88
2022-09-01T11:11:10.207Z,982.89
2022-09-01T11:12:10.154Z,982.89
2022-09-01T11:13:10.312Z,982.86
2022-09-01T11:14:10.133Z,982.85
2022-09-01T11:15:10.201Z,982.84
2022-09-01T11:16:10.229Z,982.85
2022-09-01T11:17:10.356Z,982.81
2022-09-01T11:18:10.158Z,982.84
2022-09-01T11:19:14.024Z,982.86
2022-09-01T11:20:10.171Z,982.88
2022-09-01T11:21:10.109Z,982.85
2022-09-01T11:22:10.142Z,982.81
2022-09-01T11:23:10.004Z,982.84
2022-09-01T11:24:10.174Z,982.86
2022-09-01T11:25:11.286Z,982.83
2022-09-01T11:26:25.497Z,982.82
2022-09-01T11:27:10.014Z,982.87
2022-09-01T11:28:10.135Z,982.85
2022-09-01T11:29:09.991Z,982.83
2022-09-01T11:30:09.903Z,982.85
2022-09-01T11:31:09.973Z,982.89
2022-09-01T11:32:10.292Z,982.89
2022-09-01T11:33:09.982Z,982.90
2022-09-01T11:34:09.834Z,982.88
2022-09-01T11:35:09.885Z,982.91
2022-09-01T11:36:09.846Z,982.92
2022-09-01T11:37:09.867Z,982.85
2022-09-01T11:38:09.819Z,982.89
2022-09-01T11:39:09.997Z,982.88
2022-09-01T11:40:09.893Z,982.88
2022-09-01T11:41:09.757Z,982.95
2022-09-01T11:42:09.897Z,982.89
2022-09-01T11:43:12.646Z,982.90
2022-09-01T11:44:09.840Z,982.90
2022-09-01T11:45:09.765Z,982.83
2022-09-01T11:46:09.798Z,982.83
2022-09-01T11:47:14.214Z,982.80
2022-09-01T11:48:09.924Z,982.77
2022-09-01T11:49:09.654Z,982.80
2022-09-01T11:50:09.846Z,982.72
2022-09-01T11:51:09.723Z,982.74
2022-09-01T11:52:09.864Z,982.79
2022-09-01T11:53:09.760Z,982.77
2022-09-01T11:54:09.844Z,982.71
2022-09-01T11:55:09.672Z,982.68
2022-09-01T11:56:09.571Z,982.76
2022-09-01T11:57:09.677Z,982.70
2022-09-01T11:58:09.544Z,982.79
2022-09-01T11:59:09.586Z,982.77
2022-09-01T12:00:09.497Z,982.78
2022-09-01T12:01:09.487Z,982.68
2022-09-01T12:02:09.721Z,982.78
2022-09-01T12:03:09.596Z,982.70
2022-09-01T12:04:09.571Z,982.69
2022-09-01T12:05:09.688Z,982.71
2022-09-01T12:06:09.513Z,982.73
2022-09-01T12:07:10.867Z,982.74
2022-09-01T12:08:09.505Z,982.77
2022-09-01T12:09:09.671Z,982.75
2022-09-01T12:10:09.453Z,982.67
2022-09-01T12:11:09.355Z,982.67
2022-09-01T12:12:09.342Z,982.65
2022-09-01T12:13:09.384Z,982.63
2022-09-01T12:14:11.656Z,982.71
2022-09-01T12:15:09.373Z,982.69
2022-09-01T12:16:24.895Z,982.78
2022-09-01T12:17:09.479Z,982.73
2022-09-01T12:18:09.268Z,982.77
2022-09-01T12:19:09.347Z,982.77
2022-09-01T12:20:09.244Z,982.79
2022-09-01T12:21:09.445Z,982.74
2022-09-01T12:22:09.239Z,982.76
2022-09-01T12:23:09.359Z,982.84
2022-09-01T12:24:09.198Z,982.84
2022-09-01T12:25:09.347Z,982.81
2022-09-01T12:26:09.262Z,982.79
2022-09-01T12:27:09.144Z,982.85
2022-09-01T12:28:11.102Z,982.81
2022-09-01T12:29:09.363Z,982.86
2022-09-01T12:30:09.193Z,982.86
2022-09-01T12:31:09.403Z,982.83
2022-09-01T12:32:09.279Z,982.89
2022-09-01T12:33:24.666Z,982.91
2022-09-01T12:34:09.173Z,982.85
2022-09-01T12:35:11.503Z,982.90
2022-09-01T12:36:09.172Z,982.92
2022-09-01T12:37:09.143Z,982.91
2022-09-01T12:38:09.672Z,982.93
2022-09-01T12:39:09.827Z,982.83
2022-09-01T12:40:09.033Z,982.81
2022-09-01T12:41:09.119Z,982.81
2022-09-01T12:42:08.959Z,982.84
2022-09-01T12:43:09.098Z,982.83
2022-09-01T12:44:08.937Z,982.87
2022-09-01T12:45:09.171Z,982.82
2022-09-01T12:46:08.915Z,982.79
2022-09-01T12:47:09.042Z,982.83
2022-09-01T12:48:08.886Z,982.84
2022-09-01T12:49:08.948Z,982.78
2022-09-01T12:50:08.872Z,982.82
2022-09-01T12:51:09.386Z,982.81